Terminal Aerodrome Forecast
Issued by NWS

Home | Current Version | Previous Version | Text Only | Print | Product List | Glossary On
Versions: 1 2 3 4 5 6 7 8 9 10 11 12 13 14 15 16 17 18
000
FTUS41 KLWX 211121
TAFMTN
TAF
KMTN 211121Z 2112/2212 00000KT P6SM BKN070 BKN110
     FM211800 14007KT P6SM VCTS BKN050CB
     FM212300 15008KT P6SM BKN090
     FM220800 VRB03KT P6SM BKN050=

USA.gov is the U.S. government's official web portal to all federal, state and local government web resources and services.